createdAt,value
2022-08-29T00:00:18.475Z,609
2022-08-29T00:02:18.111Z,617
2022-08-29T00:04:17.953Z,612
2022-08-29T00:06:17.774Z,620
2022-08-29T00:08:17.901Z,612
2022-08-29T00:10:17.673Z,611
2022-08-29T00:12:17.469Z,606
2022-08-29T00:14:23.177Z,611
2022-08-29T00:16:17.428Z,623
2022-08-29T00:18:17.397Z,617
2022-08-29T00:20:18.218Z,625
2022-08-29T00:22:18.033Z,624
2022-08-29T00:24:17.786Z,619
2022-08-29T00:26:17.534Z,619
2022-08-29T00:28:18.347Z,620
2022-08-29T00:30:18.127Z,617
2022-08-29T00:32:17.848Z,624
2022-08-29T00:34:18.287Z,609
2022-08-29T00:36:18.069Z,614
2022-08-29T00:38:18.179Z,607
2022-08-29T00:40:18.081Z,604
2022-08-29T00:42:17.872Z,614
2022-08-29T00:44:17.782Z,614
2022-08-29T00:46:17.505Z,616
2022-08-29T00:48:18.266Z,617
2022-08-29T00:50:17.998Z,605
2022-08-29T00:52:17.735Z,614
2022-08-29T00:54:17.525Z,611
2022-08-29T00:56:18.328Z,611
2022-08-29T00:58:18.085Z,609
2022-08-29T01:00:17.869Z,616
2022-08-29T01:02:17.835Z,594
2022-08-29T01:04:23.543Z,612
2022-08-29T01:06:17.812Z,620
2022-08-29T01:08:17.511Z,619
2022-08-29T01:10:18.298Z,621
2022-08-29T01:12:18.035Z,612
2022-08-29T01:14:17.861Z,623
2022-08-29T01:16:17.904Z,611
2022-08-29T01:18:17.932Z,608
2022-08-29T01:20:17.834Z,614
2022-08-29T01:22:17.742Z,619
2022-08-29T01:24:17.920Z,615
2022-08-29T01:26:18.051Z,619
2022-08-29T01:28:17.831Z,612
2022-08-29T01:30:17.597Z,618
2022-08-29T01:32:17.904Z,614
2022-08-29T01:34:17.715Z,601
2022-08-29T01:36:17.563Z,620
2022-08-29T01:38:18.294Z,611
2022-08-29T01:40:18.079Z,612
2022-08-29T01:42:17.853Z,610
2022-08-29T01:44:17.984Z,615
2022-08-29T01:46:17.761Z,612
2022-08-29T01:48:17.927Z,607
2022-08-29T01:50:17.720Z,615
2022-08-29T01:52:17.925Z,615
2022-08-29T01:54:17.702Z,614
2022-08-29T01:56:17.397Z,615
2022-08-29T01:58:18.224Z,619
2022-08-29T02:00:17.933Z,612
2022-08-29T02:02:17.779Z,611
2022-08-29T02:04:17.587Z,606
2022-08-29T02:06:17.857Z,597
2022-08-29T02:08:17.711Z,610
2022-08-29T02:10:17.513Z,604
2022-08-29T02:12:18.290Z,607
2022-08-29T02:14:19.422Z,610
2022-08-29T02:16:17.423Z,618
2022-08-29T02:18:17.264Z,612
2022-08-29T02:20:18.040Z,614
2022-08-29T02:22:17.820Z,617
2022-08-29T02:24:25.288Z,617
2022-08-29T02:26:17.371Z,621
2022-08-29T02:28:18.140Z,627
2022-08-29T02:30:17.332Z,619
2022-08-29T02:32:18.090Z,628
2022-08-29T02:34:17.885Z,620
2022-08-29T02:36:17.985Z,621
2022-08-29T02:38:17.578Z,632
2022-08-29T02:40:17.765Z,639
2022-08-29T02:42:17.601Z,636
2022-08-29T02:44:17.378Z,635
2022-08-29T02:46:18.304Z,637
2022-08-29T02:48:18.170Z,633
2022-08-29T02:50:17.996Z,636
2022-08-29T02:52:17.775Z,643
2022-08-29T02:54:17.616Z,640
2022-08-29T02:56:17.392Z,644
2022-08-29T02:58:18.173Z,638
2022-08-29T03:00:17.946Z,638
2022-08-29T03:02:17.797Z,639
2022-08-29T03:04:17.609Z,637
2022-08-29T03:06:18.099Z,644
2022-08-29T03:08:17.888Z,655
2022-08-29T03:10:17.701Z,637
2022-08-29T03:12:17.409Z,639
2022-08-29T03:14:18.133Z,638
2022-08-29T03:16:17.902Z,646
2022-08-29T03:18:17.723Z,635
2022-08-29T03:20:17.503Z,633
2022-08-29T03:22:17.362Z,638
2022-08-29T03:24:18.924Z,648
2022-08-29T03:26:18.193Z,661
2022-08-29T03:28:18.334Z,652
2022-08-29T03:30:18.202Z,649
2022-08-29T03:32:17.965Z,642
2022-08-29T03:34:17.808Z,643
2022-08-29T03:36:17.671Z,644
2022-08-29T03:38:17.437Z,644
2022-08-29T03:40:18.311Z,646
2022-08-29T03:42:18.088Z,646
2022-08-29T03:44:17.919Z,650
2022-08-29T03:46:17.776Z,653
2022-08-29T03:48:17.700Z,656
2022-08-29T03:50:17.507Z,660
2022-08-29T03:52:18.065Z,660
2022-08-29T03:54:17.803Z,669
2022-08-29T03:56:18.281Z,669
2022-08-29T03:58:17.783Z,660
2022-08-29T04:00:17.947Z,668
2022-08-29T04:02:17.799Z,666
2022-08-29T04:04:17.955Z,673
2022-08-29T04:06:17.638Z,675
2022-08-29T04:08:17.468Z,682
2022-08-29T04:10:18.266Z,679
2022-08-29T04:12:18.269Z,668
2022-08-29T04:14:17.980Z,675
2022-08-29T04:16:18.173Z,678
2022-08-29T04:18:21.427Z,676
2022-08-29T04:20:20.586Z,679
2022-08-29T04:22:17.982Z,680
2022-08-29T04:24:17.785Z,682
2022-08-29T04:26:35.758Z,684
2022-08-29T04:28:17.882Z,688
2022-08-29T04:30:18.195Z,671
2022-08-29T04:32:17.947Z,688
2022-08-29T04:34:17.758Z,687
2022-08-29T04:36:17.525Z,694
2022-08-29T04:38:17.824Z,692
2022-08-29T04:40:18.293Z,688
2022-08-29T04:42:20.123Z,686
2022-08-29T04:44:18.170Z,687
2022-08-29T04:46:24.303Z,683
2022-08-29T04:48:18.002Z,685
2022-08-29T04:50:18.317Z,687
2022-08-29T04:52:18.140Z,682
2022-08-29T04:54:17.920Z,676
2022-08-29T04:56:17.767Z,674
2022-08-29T04:58:17.576Z,672
2022-08-29T05:00:17.770Z,667
2022-08-29T05:02:17.590Z,671
2022-08-29T05:04:17.718Z,665
2022-08-29T05:06:17.849Z,666
2022-08-29T05:08:17.855Z,675
2022-08-29T05:10:17.657Z,674
2022-08-29T05:12:17.536Z,677
2022-08-29T05:14:18.282Z,679
2022-08-29T05:16:18.209Z,689
2022-08-29T05:18:18.243Z,686
2022-08-29T05:20:18.010Z,688
2022-08-29T05:22:17.879Z,691
2022-08-29T05:24:18.064Z,697
2022-08-29T05:26:17.894Z,703
2022-08-29T05:28:17.389Z,703
2022-08-29T05:30:19.882Z,702
2022-08-29T05:32:18.138Z,713
2022-08-29T05:34:32.868Z,706
2022-08-29T05:36:17.862Z,717
2022-08-29T05:38:18.166Z,710
2022-08-29T05:40:18.215Z,716
2022-08-29T05:42:18.143Z,714
2022-08-29T05:44:17.975Z,719
2022-08-29T05:46:20.160Z,718
2022-08-29T05:48:17.707Z,729
2022-08-29T05:50:17.427Z,717
2022-08-29T05:52:17.612Z,711
2022-08-29T05:54:17.436Z,724
2022-08-29T05:56:18.137Z,724
2022-08-29T05:58:18.153Z,718
2022-08-29T06:00:17.964Z,723
2022-08-29T06:02:17.496Z,719
2022-08-29T06:04:17.708Z,715
2022-08-29T06:06:18.102Z,707
2022-08-29T06:08:18.276Z,710
2022-08-29T06:10:17.797Z,682
2022-08-29T06:12:17.795Z,670
2022-08-29T06:14:17.616Z,652
2022-08-29T06:16:17.441Z,645
2022-08-29T06:18:17.877Z,661
2022-08-29T06:20:17.714Z,646
2022-08-29T06:22:17.526Z,631
2022-08-29T06:24:18.302Z,617
2022-08-29T06:26:18.255Z,610
2022-08-29T06:28:24.037Z,614
2022-08-29T06:30:17.989Z,624
2022-08-29T06:32:18.314Z,634
2022-08-29T06:34:17.967Z,668
2022-08-29T06:36:17.692Z,665
2022-08-29T06:38:17.608Z,683
2022-08-29T06:40:17.514Z,690
2022-08-29T06:42:18.286Z,707
2022-08-29T06:44:17.751Z,720
2022-08-29T06:46:18.083Z,728
2022-08-29T06:48:17.874Z,734
2022-08-29T06:50:17.958Z,746
2022-08-29T06:52:17.967Z,743
2022-08-29T06:54:18.123Z,741
2022-08-29T06:56:17.959Z,736
2022-08-29T06:58:18.277Z,741
2022-08-29T07:00:21.562Z,754
2022-08-29T07:02:17.530Z,766
2022-08-29T07:04:20.890Z,761
2022-08-29T07:06:17.895Z,780
2022-08-29T07:08:17.836Z,778
2022-08-29T07:10:22.219Z,777
2022-08-29T07:12:17.437Z,786
2022-08-29T07:14:18.198Z,778
2022-08-29T07:16:18.311Z,775
2022-08-29T07:18:18.279Z,781
2022-08-29T07:20:18.235Z,778
2022-08-29T07:22:18.152Z,796
2022-08-29T07:24:18.622Z,792
2022-08-29T07:26:17.814Z,800
2022-08-29T07:28:17.916Z,798
2022-08-29T07:30:17.495Z,803
2022-08-29T07:32:19.990Z,806
2022-08-29T07:34:20.481Z,798
2022-08-29T07:36:17.604Z,798
2022-08-29T07:38:18.424Z,796
2022-08-29T07:40:18.026Z,798
2022-08-29T07:42:18.173Z,792
2022-08-29T07:44:17.918Z,798
2022-08-29T07:46:18.101Z,796
2022-08-29T07:48:22.447Z,804
2022-08-29T07:50:17.909Z,792
2022-08-29T07:52:17.977Z,807
2022-08-29T07:54:17.791Z,808
2022-08-29T07:56:17.785Z,804
2022-08-29T07:58:17.592Z,800
2022-08-29T08:00:18.398Z,801
2022-08-29T08:02:18.136Z,799
2022-08-29T08:04:18.319Z,788
2022-08-29T08:06:17.722Z,791
2022-08-29T08:08:17.868Z,799
2022-08-29T08:10:17.773Z,795
2022-08-29T08:12:17.564Z,780
2022-08-29T08:14:17.371Z,772
2022-08-29T08:16:17.638Z,808
2022-08-29T08:18:17.638Z,817
2022-08-29T08:20:17.527Z,790
2022-08-29T08:22:18.272Z,776
2022-08-29T08:24:19.693Z,761
2022-08-29T08:26:17.940Z,750
2022-08-29T08:28:17.696Z,751
2022-08-29T08:30:18.293Z,754
2022-08-29T08:32:18.056Z,753
2022-08-29T08:34:17.867Z,746
2022-08-29T08:36:17.669Z,749
2022-08-29T08:38:17.607Z,752
2022-08-29T08:40:18.330Z,754
2022-08-29T08:42:21.767Z,749
2022-08-29T08:44:18.288Z,748
2022-08-29T08:46:18.132Z,753
2022-08-29T08:48:18.204Z,763
2022-08-29T08:50:18.047Z,754
2022-08-29T08:52:17.874Z,742
2022-08-29T08:54:18.063Z,746
2022-08-29T08:56:17.560Z,762
2022-08-29T08:58:17.831Z,741
2022-08-29T09:00:17.685Z,755
2022-08-29T09:02:17.438Z,756
2022-08-29T09:04:18.303Z,762
2022-08-29T09:06:18.078Z,749
2022-08-29T09:08:18.121Z,746
2022-08-29T09:10:17.531Z,751
2022-08-29T09:12:18.270Z,745
2022-08-29T09:14:17.803Z,750
2022-08-29T09:16:17.667Z,745
2022-08-29T09:18:21.813Z,756
2022-08-29T09:20:17.669Z,766
2022-08-29T09:22:17.452Z,757
2022-08-29T09:24:18.059Z,763
2022-08-29T09:26:17.926Z,753
2022-08-29T09:28:18.301Z,741
2022-08-29T09:30:18.051Z,754
2022-08-29T09:32:22.253Z,758
2022-08-29T09:34:18.264Z,752
2022-08-29T09:36:18.071Z,760
2022-08-29T09:38:17.783Z,750
2022-08-29T09:40:18.919Z,745
2022-08-29T09:42:17.380Z,751
2022-08-29T09:44:17.802Z,757
2022-08-29T09:46:17.873Z,748
2022-08-29T09:48:17.847Z,747
2022-08-29T09:50:17.580Z,746
2022-08-29T09:52:17.436Z,739
2022-08-29T09:54:18.177Z,735
2022-08-29T09:56:18.233Z,749
2022-08-29T09:58:17.931Z,729
2022-08-29T10:00:17.834Z,737
2022-08-29T10:02:17.767Z,747
2022-08-29T10:04:18.390Z,754
2022-08-29T10:06:17.438Z,759
2022-08-29T10:08:18.184Z,768
2022-08-29T10:10:18.088Z,767
2022-08-29T10:12:17.673Z,776
2022-08-29T10:14:17.481Z,785
2022-08-29T10:16:18.422Z,779
2022-08-29T10:18:17.386Z,772
2022-08-29T10:20:18.066Z,781
2022-08-29T10:22:18.008Z,784
2022-08-29T10:24:19.377Z,803
2022-08-29T10:26:17.498Z,832
2022-08-29T10:28:18.302Z,839
2022-08-29T10:30:18.067Z,831
2022-08-29T10:32:18.013Z,856
2022-08-29T10:34:18.008Z,870
2022-08-29T10:36:18.011Z,848
2022-08-29T10:38:17.732Z,865
2022-08-29T10:40:18.139Z,870
2022-08-29T10:42:17.956Z,870
2022-08-29T10:46:17.782Z,868
2022-08-29T10:48:17.966Z,856
2022-08-29T10:50:34.283Z,852
2022-08-29T10:52:17.726Z,841
2022-08-29T10:54:17.600Z,834
2022-08-29T10:56:18.317Z,841
2022-08-29T10:58:18.083Z,857
2022-08-29T11:00:17.747Z,850
2022-08-29T11:02:17.690Z,847
2022-08-29T11:04:17.718Z,837
2022-08-29T11:06:18.145Z,823
2022-08-29T11:08:18.064Z,816
2022-08-29T11:10:18.058Z,807
2022-08-29T11:12:18.125Z,809
2022-08-29T11:14:18.025Z,795
2022-08-29T11:16:17.852Z,800
2022-08-29T11:18:18.482Z,810
2022-08-29T11:20:18.406Z,802
2022-08-29T11:22:18.151Z,796
2022-08-29T11:24:18.055Z,786
2022-08-29T11:26:18.373Z,786
2022-08-29T11:28:18.383Z,802
2022-08-29T11:30:18.299Z,805
2022-08-29T11:32:17.845Z,799
2022-08-29T11:34:17.712Z,789
2022-08-29T11:36:17.902Z,778
2022-08-29T11:38:17.746Z,792
2022-08-29T11:40:17.697Z,788
2022-08-29T11:42:49.685Z,793
2022-08-29T11:44:18.052Z,793
2022-08-29T11:46:18.018Z,801
2022-08-29T11:48:17.763Z,803
2022-08-29T11:50:17.998Z,808
2022-08-29T11:52:18.998Z,794
2022-08-29T11:54:17.793Z,790
2022-08-29T11:56:18.037Z,740
2022-08-29T11:58:18.222Z,774
2022-08-29T12:00:18.129Z,767
2022-08-29T12:02:18.166Z,774
2022-08-29T12:04:17.514Z,767
2022-08-29T12:06:17.454Z,779
2022-08-29T12:08:35.881Z,790
2022-08-29T12:10:17.905Z,776
2022-08-29T12:12:17.375Z,779
2022-08-29T12:14:18.231Z,793
2022-08-29T12:16:18.086Z,799
2022-08-29T12:18:18.109Z,801
2022-08-29T12:20:17.933Z,798
2022-08-29T12:22:22.483Z,812
2022-08-29T12:24:17.960Z,836
2022-08-29T12:26:22.347Z,830
2022-08-29T12:28:17.678Z,824
2022-08-29T12:30:18.063Z,808
2022-08-29T12:32:23.177Z,810
2022-08-29T12:34:17.730Z,807
2022-08-29T12:36:18.087Z,817
2022-08-29T12:38:17.961Z,830
2022-08-29T12:40:18.334Z,813
2022-08-29T12:42:18.023Z,842
2022-08-29T12:44:17.794Z,865
2022-08-29T12:46:17.735Z,862
2022-08-29T12:48:17.613Z,857
2022-08-29T12:50:17.363Z,850
2022-08-29T12:52:17.966Z,864
2022-08-29T12:54:17.759Z,836
2022-08-29T12:56:17.567Z,839
2022-08-29T12:58:17.985Z,847
2022-08-29T13:00:18.149Z,830
2022-08-29T13:02:18.019Z,840
2022-08-29T13:04:17.865Z,846
2022-08-29T13:06:18.208Z,846
2022-08-29T13:08:18.179Z,850
2022-08-29T13:10:17.941Z,850
2022-08-29T13:12:17.741Z,840
2022-08-29T13:14:17.473Z,860
2022-08-29T13:16:18.392Z,857
2022-08-29T13:18:18.338Z,860
2022-08-29T13:20:18.041Z,868
2022-08-29T13:22:17.803Z,871
2022-08-29T13:24:18.047Z,869
2022-08-29T13:26:17.570Z,872
2022-08-29T13:28:17.538Z,867
2022-08-29T13:30:17.471Z,858
2022-08-29T13:32:17.523Z,871
2022-08-29T13:34:17.577Z,868
2022-08-29T13:36:17.468Z,913
2022-08-29T13:38:18.332Z,908
2022-08-29T13:40:18.090Z,899
2022-08-29T13:42:18.293Z,909
2022-08-29T13:44:17.601Z,903
2022-08-29T13:46:17.528Z,894
2022-08-29T13:48:17.370Z,869
2022-08-29T13:50:17.455Z,859
2022-08-29T13:52:18.311Z,892
2022-08-29T13:54:18.107Z,854
2022-08-29T13:56:17.897Z,871
2022-08-29T13:58:17.956Z,856
2022-08-29T14:00:18.252Z,879
2022-08-29T14:02:18.078Z,883
2022-08-29T14:04:37.205Z,875
2022-08-29T14:06:17.838Z,873
2022-08-29T14:08:18.243Z,863
2022-08-29T14:10:17.999Z,862
2022-08-29T14:12:17.449Z,856
2022-08-29T14:14:18.344Z,874
2022-08-29T14:16:18.187Z,878
2022-08-29T14:18:17.581Z,876
2022-08-29T14:20:17.627Z,874
2022-08-29T14:22:17.503Z,867
2022-08-29T14:24:17.976Z,867
2022-08-29T14:26:18.319Z,938
2022-08-29T14:28:18.111Z,1053
2022-08-29T14:30:17.410Z,960
2022-08-29T14:32:17.381Z,919
2022-08-29T14:34:18.229Z,906
2022-08-29T14:36:18.337Z,924
2022-08-29T14:38:18.484Z,897
2022-08-29T14:40:18.635Z,896
2022-08-29T14:42:18.247Z,867
2022-08-29T14:44:20.109Z,864
2022-08-29T14:46:17.585Z,857
2022-08-29T14:48:17.580Z,857
2022-08-29T14:50:17.935Z,881
2022-08-29T14:52:17.912Z,884
2022-08-29T14:54:17.770Z,883
2022-08-29T14:56:31.237Z,892
2022-08-29T14:58:17.547Z,904
2022-08-29T15:00:17.396Z,932
2022-08-29T15:02:17.705Z,915
2022-08-29T15:04:18.366Z,941
2022-08-29T15:06:17.653Z,906
2022-08-29T15:08:18.163Z,894
2022-08-29T15:10:17.436Z,891
2022-08-29T15:12:18.278Z,903
2022-08-29T15:14:18.165Z,891
2022-08-29T15:16:18.195Z,934
2022-08-29T15:18:39.220Z,942
2022-08-29T15:20:35.297Z,1435
2022-08-29T15:22:17.976Z,1162
2022-08-29T15:24:18.203Z,1113
2022-08-29T15:26:17.507Z,1061
2022-08-29T15:28:17.794Z,1044
2022-08-29T15:30:18.165Z,1033
2022-08-29T15:32:17.910Z,1017
2022-08-29T15:34:17.654Z,1020
2022-08-29T15:36:17.717Z,1018
2022-08-29T15:38:18.073Z,1006
2022-08-29T15:40:17.979Z,1026
2022-08-29T15:42:17.774Z,1027
2022-08-29T15:44:17.544Z,999
2022-08-29T15:46:18.285Z,999
2022-08-29T15:48:17.456Z,983
2022-08-29T15:50:17.583Z,981
2022-08-29T15:52:18.319Z,978
2022-08-29T15:54:18.335Z,978
2022-08-29T15:56:18.247Z,980
2022-08-29T15:58:17.681Z,966
2022-08-29T16:00:17.545Z,947
2022-08-29T16:02:17.604Z,934
2022-08-29T16:04:17.331Z,915
2022-08-29T16:06:18.127Z,910
2022-08-29T16:08:18.752Z,915
2022-08-29T16:10:18.211Z,906
2022-08-29T16:12:18.030Z,902
2022-08-29T16:14:47.095Z,893
2022-08-29T16:16:17.974Z,908
2022-08-29T16:18:17.854Z,921
2022-08-29T16:20:17.941Z,941
2022-08-29T16:22:17.409Z,982
2022-08-29T16:24:18.297Z,990
2022-08-29T16:26:18.126Z,1003
2022-08-29T16:28:18.176Z,1016
2022-08-29T16:30:18.358Z,998
2022-08-29T16:32:18.273Z,998
2022-08-29T16:34:18.110Z,997
2022-08-29T16:36:18.035Z,997
2022-08-29T16:38:17.967Z,979
2022-08-29T16:40:18.359Z,971
2022-08-29T16:42:18.146Z,964
2022-08-29T16:44:17.932Z,971
2022-08-29T16:46:17.751Z,961
2022-08-29T16:48:18.227Z,971
2022-08-29T16:50:18.051Z,968
2022-08-29T16:52:17.641Z,981
2022-08-29T16:54:17.973Z,961
2022-08-29T16:56:17.962Z,972
2022-08-29T16:58:17.906Z,963
2022-08-29T17:00:18.120Z,951
2022-08-29T17:02:17.891Z,948
2022-08-29T17:04:17.719Z,935
2022-08-29T17:06:17.422Z,931
2022-08-29T17:08:18.415Z,939
2022-08-29T17:10:17.497Z,936
2022-08-29T17:12:18.319Z,947
2022-08-29T17:14:18.073Z,937
2022-08-29T17:16:17.940Z,925
2022-08-29T17:18:18.136Z,928
2022-08-29T17:20:17.860Z,925
2022-08-29T17:22:17.509Z,925
2022-08-29T17:24:18.314Z,916
2022-08-29T17:26:18.203Z,924
2022-08-29T17:28:18.959Z,912
2022-08-29T17:30:18.034Z,916
2022-08-29T17:32:18.161Z,909
2022-08-29T17:34:17.615Z,894
2022-08-29T17:36:18.155Z,894
2022-08-29T17:38:18.096Z,894
2022-08-29T17:40:18.318Z,890
2022-08-29T17:42:17.890Z,905
2022-08-29T17:44:17.791Z,905
2022-08-29T17:46:17.622Z,899
2022-08-29T17:48:18.064Z,898
2022-08-29T17:50:18.094Z,905
2022-08-29T17:52:17.437Z,898
2022-08-29T17:54:17.320Z,900
2022-08-29T17:56:18.396Z,891
2022-08-29T17:58:18.280Z,885
2022-08-29T18:00:17.894Z,890
2022-08-29T18:02:17.631Z,896
2022-08-29T18:04:17.978Z,887
2022-08-29T18:06:17.840Z,885
2022-08-29T18:08:17.643Z,881
2022-08-29T18:10:17.525Z,882
2022-08-29T18:12:18.328Z,885
2022-08-29T18:14:18.102Z,885
2022-08-29T18:16:17.657Z,889
2022-08-29T18:18:17.839Z,887
2022-08-29T18:20:18.125Z,885
2022-08-29T18:22:17.860Z,879
2022-08-29T18:24:17.838Z,881
2022-08-29T18:26:17.515Z,871
2022-08-29T18:28:18.269Z,859
2022-08-29T18:30:17.901Z,852
2022-08-29T18:32:17.748Z,843
2022-08-29T18:34:17.516Z,840
2022-08-29T18:36:18.265Z,834
2022-08-29T18:38:18.288Z,829
2022-08-29T18:40:17.688Z,811
2022-08-29T18:42:37.104Z,810
2022-08-29T18:44:18.157Z,791
2022-08-29T18:46:17.548Z,792
2022-08-29T18:48:17.590Z,787
2022-08-29T18:50:17.398Z,779
2022-08-29T18:52:18.207Z,783
2022-08-29T18:54:19.294Z,778
2022-08-29T18:56:17.947Z,787
2022-08-29T18:58:17.556Z,791
2022-08-29T19:00:17.766Z,794
2022-08-29T19:02:17.929Z,811
2022-08-29T19:04:20.288Z,796
2022-08-29T19:06:17.622Z,800
2022-08-29T19:08:17.803Z,806
2022-08-29T19:10:17.702Z,798
2022-08-29T19:12:17.881Z,790
2022-08-29T19:14:17.483Z,788
2022-08-29T19:16:18.396Z,839
2022-08-29T19:18:17.573Z,847
2022-08-29T19:20:18.269Z,838
2022-08-29T19:22:18.088Z,807
2022-08-29T19:24:18.093Z,800
2022-08-29T19:26:18.243Z,784
2022-08-29T19:28:18.327Z,773
2022-08-29T19:30:18.073Z,772
2022-08-29T19:32:17.890Z,763
2022-08-29T19:34:17.652Z,772
2022-08-29T19:36:17.556Z,773
2022-08-29T19:38:17.376Z,774
2022-08-29T19:40:18.244Z,776
2022-08-29T19:42:18.053Z,776
2022-08-29T19:44:17.873Z,767
2022-08-29T19:46:18.018Z,756
2022-08-29T19:48:18.076Z,757
2022-08-29T19:50:17.366Z,767
2022-08-29T19:52:18.076Z,753
2022-08-29T19:54:18.341Z,766
2022-08-29T19:56:18.166Z,766
2022-08-29T19:58:18.308Z,763
2022-08-29T20:00:18.160Z,750
2022-08-29T20:02:18.100Z,739
2022-08-29T20:04:17.929Z,737
2022-08-29T20:06:17.568Z,725
2022-08-29T20:08:18.293Z,733
2022-08-29T20:10:17.970Z,735
2022-08-29T20:12:17.922Z,758
2022-08-29T20:14:18.245Z,803
2022-08-29T20:16:17.790Z,818
2022-08-29T20:18:17.738Z,792
2022-08-29T20:20:17.574Z,777
2022-08-29T20:22:18.817Z,751
2022-08-29T20:24:17.527Z,744
2022-08-29T20:26:17.311Z,736
2022-08-29T20:28:18.253Z,744
2022-08-29T20:30:18.313Z,777
2022-08-29T20:32:17.684Z,850
2022-08-29T20:34:17.476Z,850
2022-08-29T20:36:18.342Z,827
2022-08-29T20:38:18.075Z,789
2022-08-29T20:40:17.606Z,766
2022-08-29T20:42:17.666Z,740
2022-08-29T20:44:17.388Z,710
2022-08-29T20:46:18.311Z,699
2022-08-29T20:48:17.502Z,678
2022-08-29T20:50:17.473Z,673
2022-08-29T20:52:18.383Z,647
2022-08-29T20:54:17.803Z,641
2022-08-29T20:56:18.139Z,635
2022-08-29T20:58:18.138Z,647
2022-08-29T21:00:17.898Z,657
2022-08-29T21:02:17.414Z,657
2022-08-29T21:04:20.302Z,658
2022-08-29T21:06:17.934Z,662
2022-08-29T21:08:17.723Z,642
2022-08-29T21:10:18.273Z,642
2022-08-29T21:12:17.599Z,646
2022-08-29T21:14:17.381Z,645
2022-08-29T21:16:17.791Z,686
2022-08-29T21:18:20.117Z,704
2022-08-29T21:20:18.013Z,722
2022-08-29T21:22:20.649Z,744
2022-08-29T21:24:17.796Z,764
2022-08-29T21:26:17.774Z,771
2022-08-29T21:28:17.580Z,784
2022-08-29T21:30:17.497Z,784
2022-08-29T21:32:22.551Z,799
2022-08-29T21:34:18.014Z,805
2022-08-29T21:36:17.538Z,809
2022-08-29T21:38:17.468Z,813
2022-08-29T21:40:18.266Z,813
2022-08-29T21:42:18.137Z,817
2022-08-29T21:44:17.890Z,814
2022-08-29T21:46:17.746Z,827
2022-08-29T21:48:17.713Z,823
2022-08-29T21:50:17.592Z,829
2022-08-29T21:52:17.524Z,823
2022-08-29T21:54:17.542Z,825
2022-08-29T21:56:18.399Z,824
2022-08-29T21:58:18.238Z,829
2022-08-29T22:00:18.282Z,824
2022-08-29T22:02:18.142Z,823
2022-08-29T22:04:18.814Z,821
2022-08-29T22:06:17.692Z,824
2022-08-29T22:08:17.620Z,824
2022-08-29T22:10:17.758Z,822
2022-08-29T22:12:17.491Z,833
2022-08-29T22:14:18.335Z,828
2022-08-29T22:16:17.762Z,823
2022-08-29T22:18:17.846Z,828
2022-08-29T22:20:17.671Z,817
2022-08-29T22:22:18.323Z,821
2022-08-29T22:24:17.390Z,821
2022-08-29T22:26:17.590Z,831
2022-08-29T22:28:18.142Z,829
2022-08-29T22:30:17.480Z,834
2022-08-29T22:32:18.310Z,832
2022-08-29T22:34:17.583Z,825
2022-08-29T22:36:17.453Z,827
2022-08-29T22:38:18.169Z,828
2022-08-29T22:40:18.163Z,828
2022-08-29T22:42:18.110Z,830
2022-08-29T22:46:17.911Z,826
2022-08-29T22:48:17.847Z,827
2022-08-29T22:50:17.763Z,833
2022-08-29T22:52:17.531Z,831
2022-08-29T22:54:18.212Z,825
2022-08-29T22:56:18.028Z,818
2022-08-29T22:58:17.811Z,829
2022-08-29T23:00:18.233Z,828
2022-08-29T23:02:17.944Z,826
2022-08-29T23:04:17.746Z,817
2022-08-29T23:06:17.886Z,821
2022-08-29T23:08:17.546Z,816
2022-08-29T23:10:17.661Z,819
2022-08-29T23:12:17.611Z,819
2022-08-29T23:14:20.651Z,824
2022-08-29T23:16:18.137Z,821
2022-08-29T23:18:18.012Z,830
2022-08-29T23:20:19.242Z,833
2022-08-29T23:22:18.234Z,833
2022-08-29T23:24:17.801Z,825
2022-08-29T23:26:17.597Z,834
2022-08-29T23:28:18.056Z,821
2022-08-29T23:30:17.909Z,820
2022-08-29T23:32:17.676Z,825
2022-08-29T23:34:17.456Z,815
2022-08-29T23:36:17.947Z,822
2022-08-29T23:38:17.728Z,818
2022-08-29T23:40:17.673Z,816
2022-08-29T23:42:17.771Z,817
2022-08-29T23:44:17.787Z,823
2022-08-29T23:46:17.743Z,817
2022-08-29T23:48:17.588Z,813
2022-08-29T23:50:17.987Z,809
2022-08-29T23:52:18.097Z,805
2022-08-29T23:54:17.561Z,812
2022-08-29T23:56:17.419Z,807
2022-08-29T23:58:18.336Z,812
